Tropical Cyclones
[Index]
Main Index Home Page Stock Weather Photos Extreme Storms Discussion Storm News and Storm Chasing Reports Tropical Cyclones / Hurricanes / Typhoons Weather Data and Links Wild Fires / Bushfires Weather Observation Techniques Weather Picture Catalogue Tornado Pictures and Reports Stock Video Footage and DVDs for sale
Season 2005-2006 Tropical Cyclone DIWA Track Map
Season 2005-2006 Summaries: [BoM-AU] [JTWC-AU] [JTWC-SIO] [JTWC-SPAC] [JTWC-SH]
<<- Previous TC | JTWC 2005-2006 Season | Next TC ->>

click for intensity scale information  Lat/long Grid: Show Hide

 Date Labels: Show Hide

Joint Typhoon Warning Centre Cyclone Data

Name: DIWA

01 Mar 2006 06:00 UTC to 09 Mar 2006 06:00 UTC

    date/time    lat    long     hPa   cat  kts
2006-03-01 06   13.0    57.5    1006         15          
2006-03-01 12   13.3    58.1    1006         15          
2006-03-01 18   13.9    58.3    1006         15          
2006-03-02 00   14.5    58.2    1006         15          
2006-03-02 06   14.5    57.5    1006         15          
2006-03-02 12   13.6    57.1    1006         15          
2006-03-02 18   14.2    57.6    1001         25          
2006-03-03 00   15.0    57.7    1002         25          
2006-03-03 06   15.5    57.8    1002         25          
2006-03-03 12   15.9    57.9    1002         25          
2006-03-03 18   16.6    57.4    1000         30          
2006-03-04 00   17.7    56.9     997         35          
2006-03-04 06   18.3    55.4     997         35          
2006-03-04 12   18.6    54.5     997         35          
2006-03-04 18   18.8    54.1     997         35          
2006-03-05 00   19.2    54.1     997         35          
2006-03-05 06   20.1    54.0     997         35          
2006-03-05 12   20.8    53.9     994    1    40          
2006-03-05 18   21.3    53.2     991    1    45          
2006-03-06 00   21.8    52.4     991    1    45          
2006-03-06 06   22.4    52.2     991    1    45          
2006-03-06 12   23.3    52.5     991    1    45          
2006-03-06 18   23.3    53.1     991    1    45          
2006-03-07 00   23.9    52.9     991    1    45          
2006-03-07 06   24.3    53.4     991    1    45          
2006-03-07 12   24.8    53.8     991    1    45          
2006-03-07 18   25.5    54.6     991    1    45          
2006-03-08 00   26.6    55.6     991    1    45          
2006-03-08 06   27.7    56.8     984    2    55          
2006-03-08 06   27.7    56.8     984    2    55          
2006-03-08 12   29.0    57.8     991    1    45          
2006-03-08 18   30.7    59.4     997         35          
2006-03-09 00   33.1    60.3     997         35          
2006-03-09 06   34.3    61.2    1000         30          
Winds are 1-min average.

Tropical cyclone tracks developed by Michael Bath using data from the Joint Typhoon Warning Centre Best Tracks and Google Maps.


[Australian Severe Weather index] [Copyright Notice] [Email Contacts] [Search This Site] [Privacy Policy]
Document: tropical_cyclone_diwa.htm Updated: 28 June 2017